createdAt,value
2018-10-12T00:04:35.066Z,15.40
2018-10-12T00:10:05.688Z,13.97
2018-10-12T00:15:35.098Z,13.40
2018-10-12T00:21:08.521Z,13.70
2018-10-12T00:26:38.024Z,12.47
2018-10-12T00:32:07.522Z,17.97
2018-10-12T00:37:36.972Z,14.30
2018-10-12T00:43:06.378Z,11.00
2018-10-12T00:48:35.713Z,10.80
2018-10-12T00:54:04.992Z,10.93
2018-10-12T00:59:34.276Z,15.80
2018-10-12T01:05:04.737Z,10.40
2018-10-12T01:10:34.046Z,8.40
2018-10-12T01:16:03.402Z,8.47
2018-10-12T01:21:32.741Z,9.40
2018-10-12T01:27:04.065Z,11.70
2018-10-12T01:32:38.409Z,10.23
2018-10-12T01:38:08.846Z,10.20
2018-10-12T01:43:38.167Z,10.83
2018-10-12T01:49:07.597Z,7.73
2018-10-12T01:54:36.961Z,9.60
2018-10-12T02:00:07.041Z,10.33
2018-10-12T02:05:36.377Z,6.03
2018-10-12T02:11:06.940Z,6.73
2018-10-12T02:16:36.336Z,6.23
2018-10-12T02:22:05.731Z,5.93
2018-10-12T02:27:36.336Z,6.80
2018-10-12T02:33:05.721Z,12.63
2018-10-12T02:38:35.114Z,12.70
2018-10-12T02:44:04.446Z,7.27
2018-10-12T02:49:33.747Z,5.50
2018-10-12T02:55:04.317Z,7.97
2018-10-12T03:00:33.674Z,8.17
2018-10-12T03:06:03.062Z,7.40
2018-10-12T03:11:33.439Z,11.40
2018-10-12T03:17:02.882Z,6.90
2018-10-12T03:22:32.210Z,7.77
2018-10-12T03:28:19.755Z,6.90
2018-10-12T03:33:49.983Z,9.13
2018-10-12T03:39:19.227Z,6.40
2018-10-12T03:44:48.569Z,5.63
2018-10-12T03:50:17.907Z,8.57
2018-10-12T03:55:47.140Z,6.30
2018-10-12T04:01:16.514Z,7.60
2018-10-12T04:06:45.801Z,7.70
2018-10-12T04:12:15.032Z,6.37
2018-10-12T04:17:44.441Z,9.00
2018-10-12T04:23:14.385Z,7.57
2018-10-12T04:28:43.965Z,12.80
2018-10-12T04:34:13.349Z,8.40
2018-10-12T04:41:56.635Z,10.23
2018-10-12T04:47:30.628Z,7.25
2018-10-12T04:53:03.974Z,7.37
2018-10-12T04:58:38.018Z,9.60
2018-10-12T05:04:07.557Z,8.73
2018-10-12T05:09:37.517Z,8.30
2018-10-12T05:15:07.029Z,8.70
2018-10-12T05:20:36.646Z,7.80
2018-10-12T05:26:06.544Z,9.10
2018-10-12T05:31:36.250Z,11.03
2018-10-12T05:37:06.107Z,10.17
2018-10-12T05:42:35.693Z,23.27
2018-10-12T05:48:22.025Z,24.47
2018-10-12T05:53:52.238Z,11.30
2018-10-12T05:59:21.857Z,13.63
2018-10-12T06:04:51.389Z,13.97
2018-10-12T06:10:20.923Z,18.23
2018-10-12T06:15:50.555Z,11.20
2018-10-12T06:21:19.996Z,9.47
2018-10-12T06:26:49.496Z,11.73
2018-10-12T06:32:18.900Z,8.90
2018-10-12T06:37:48.481Z,12.10
2018-10-12T06:43:17.954Z,13.10
2018-10-12T06:48:49.741Z,14.53
2018-10-12T06:54:19.273Z,13.90
2018-10-12T06:59:48.746Z,11.87
2018-10-12T07:05:18.276Z,11.87
2018-10-12T07:10:47.746Z,11.10
2018-10-12T07:16:17.744Z,12.70
2018-10-12T07:21:47.270Z,10.20
2018-10-12T07:27:16.745Z,9.13
2018-10-12T07:32:46.329Z,9.53
2018-10-12T07:38:16.033Z,56.43
2018-10-12T07:43:45.654Z,48.73
2018-10-12T07:49:15.226Z,46.40
2018-10-12T07:54:45.294Z,9.33
2018-10-12T08:00:15.167Z,7.87
2018-10-12T08:05:44.869Z,6.40
2018-10-12T08:11:14.520Z,5.50
2018-10-12T08:16:44.053Z,8.63
2018-10-12T08:22:13.609Z,3.90
2018-10-12T08:27:42.900Z,7.70
2018-10-12T08:33:12.162Z,3.30
2018-10-12T08:38:41.505Z,4.67
2018-10-12T08:44:10.850Z,6.93
2018-10-12T08:49:40.067Z,5.90
2018-10-12T08:55:09.349Z,5.00
2018-10-12T09:00:38.633Z,5.27
2018-10-12T09:06:07.942Z,3.20
2018-10-12T09:11:37.721Z,3.63
2018-10-12T09:17:07.137Z,6.70
2018-10-12T09:22:36.412Z,4.30
2018-10-12T09:28:05.859Z,3.53
2018-10-12T09:33:35.324Z,4.63
2018-10-12T09:39:05.748Z,3.80
2018-10-12T09:44:35.328Z,5.53
2018-10-12T09:50:04.754Z,3.23
2018-10-12T09:55:34.032Z,7.33
2018-10-12T10:01:08.404Z,2.90
2018-10-12T10:06:37.784Z,9.80
2018-10-12T10:12:07.148Z,4.73
2018-10-12T10:17:36.669Z,4.87
2018-10-12T10:23:05.943Z,4.83
2018-10-12T10:28:35.260Z,2.50
2018-10-12T10:34:04.803Z,6.50
2018-10-12T10:39:34.139Z,4.10
2018-10-12T10:45:03.965Z,8.00
2018-10-12T10:50:33.312Z,8.23
2018-10-12T10:56:02.629Z,3.80
2018-10-12T11:01:31.855Z,7.03
2018-10-12T11:07:02.225Z,5.47
2018-10-12T11:12:31.735Z,6.97
2018-10-12T11:18:01.028Z,4.77
2018-10-12T11:23:30.373Z,4.60
2018-10-12T11:28:59.864Z,12.23
2018-10-12T11:34:29.158Z,7.37
2018-10-12T11:39:58.384Z,3.60
2018-10-12T11:45:27.948Z,2.37
2018-10-12T11:50:57.309Z,2.73
2018-10-12T11:56:26.636Z,5.93
2018-10-12T12:01:55.943Z,5.53
2018-10-12T12:07:25.357Z,2.57
2018-10-12T12:12:54.645Z,3.60
2018-10-12T12:18:24.010Z,3.80
2018-10-12T12:23:54.485Z,8.57
2018-10-12T12:29:24.377Z,3.70
2018-10-12T12:34:53.945Z,3.67
2018-10-12T12:40:23.125Z,5.87
2018-10-12T12:45:52.524Z,7.93
2018-10-12T12:51:21.757Z,5.80
2018-10-12T12:56:51.146Z,4.27
2018-10-12T13:02:21.581Z,12.18
2018-10-12T13:07:51.812Z,4.10
2018-10-12T13:13:21.612Z,8.40
2018-10-12T13:18:50.901Z,9.60
2018-10-12T13:24:20.413Z,3.43
2018-10-12T13:29:49.795Z,2.30
2018-10-12T13:35:19.345Z,5.30
2018-10-12T13:40:48.672Z,5.00
2018-10-12T13:46:18.077Z,5.07
2018-10-12T13:51:47.414Z,6.30
2018-10-12T13:57:16.608Z,6.83
2018-10-12T14:02:45.920Z,4.20
2018-10-12T14:08:15.446Z,2.70
2018-10-12T14:13:44.794Z,8.33
2018-10-12T14:19:14.407Z,3.47
2018-10-12T14:24:43.436Z,5.03
2018-10-12T14:30:12.832Z,2.00
2018-10-12T14:35:42.211Z,2.40
2018-10-12T14:41:11.637Z,3.40
2018-10-12T14:46:40.997Z,3.30
2018-10-12T14:52:10.459Z,5.07
2018-10-12T14:57:39.844Z,4.47
2018-10-12T15:03:09.205Z,3.27
2018-10-12T15:08:38.488Z,3.83
2018-10-12T15:14:07.929Z,5.10
2018-10-12T15:19:38.422Z,6.70
2018-10-12T15:25:07.793Z,3.67
2018-10-12T15:30:37.134Z,6.37
2018-10-12T15:36:06.624Z,10.10
2018-10-12T15:41:36.232Z,6.30
2018-10-12T15:47:05.670Z,3.33
2018-10-12T15:52:35.260Z,3.63
2018-10-12T15:58:05.576Z,4.57
2018-10-12T16:03:35.105Z,4.70
2018-10-12T16:09:05.269Z,6.47
2018-10-12T16:14:34.724Z,8.80
2018-10-12T16:20:05.582Z,4.23
2018-10-12T16:26:04.232Z,5.57
2018-10-12T16:31:33.502Z,7.33
2018-10-12T16:37:03.223Z,7.00
2018-10-12T16:42:32.976Z,5.27
2018-10-12T16:48:02.652Z,7.50
2018-10-12T16:53:32.288Z,10.23
2018-10-12T16:59:01.943Z,5.67
2018-10-12T17:04:32.288Z,7.27
2018-10-12T17:10:02.075Z,5.00
2018-10-12T17:15:31.726Z,7.70
2018-10-12T17:21:03.089Z,7.67
2018-10-12T17:26:33.441Z,10.17
2018-10-12T17:32:02.787Z,6.77
2018-10-12T17:37:32.284Z,7.97
2018-10-12T17:43:01.953Z,6.57
2018-10-12T17:48:31.342Z,6.93
2018-10-12T17:54:05.061Z,11.10
2018-10-12T17:59:34.719Z,20.60
2018-10-12T18:05:06.281Z,12.70
2018-10-12T18:10:35.709Z,14.87
2018-10-12T18:16:07.823Z,12.67
2018-10-12T18:21:58.144Z,12.67
2018-10-12T18:27:31.104Z,10.33
2018-10-12T18:33:02.904Z,12.75
2018-10-12T18:38:33.511Z,13.97
2018-10-12T18:44:03.289Z,16.73
2018-10-12T18:49:35.274Z,46.73
2018-10-12T18:55:07.116Z,14.37
2018-10-12T19:00:47.658Z,20.10
2018-10-12T19:06:32.854Z,19.43
2018-10-12T19:12:15.056Z,19.70
2018-10-12T19:17:55.086Z,15.43
2018-10-12T19:23:39.360Z,10.03
2018-10-12T19:29:20.368Z,17.43
2018-10-12T19:34:55.357Z,9.90
2018-10-12T19:40:34.900Z,14.77
2018-10-12T19:46:11.602Z,12.70
2018-10-12T19:51:52.526Z,12.27
2018-10-12T19:57:35.001Z,15.23
2018-10-12T20:03:06.492Z,17.17
2018-10-12T20:08:55.978Z,15.93
2018-10-12T20:14:43.035Z,18.17
2018-10-12T20:20:14.274Z,33.77
2018-10-12T20:25:45.584Z,32.17
2018-10-12T20:31:26.330Z,30.90
2018-10-12T20:36:58.105Z,38.20
2018-10-12T20:42:27.636Z,32.03
2018-10-12T20:47:57.034Z,17.73
2018-10-12T20:53:26.324Z,20.97
2018-10-12T20:58:55.736Z,17.27
2018-10-12T21:04:26.415Z,25.53
2018-10-12T21:09:56.063Z,17.00
2018-10-12T21:15:25.452Z,16.10
2018-10-12T21:20:54.904Z,14.03
2018-10-12T21:26:24.587Z,19.50
2018-10-12T21:31:54.104Z,14.33
2018-10-12T21:37:23.760Z,14.17
2018-10-12T21:42:53.253Z,18.00
2018-10-12T21:48:23.065Z,17.17
2018-10-12T21:53:53.950Z,20.90
2018-10-12T21:59:23.635Z,20.40
2018-10-12T22:04:52.981Z,16.10
2018-10-12T22:10:22.255Z,13.70
2018-10-12T22:15:51.532Z,19.47
2018-10-12T22:21:21.269Z,13.63
2018-10-12T22:26:51.604Z,15.70
2018-10-12T22:32:20.784Z,16.33
2018-10-12T22:37:50.062Z,14.23
2018-10-12T22:43:19.274Z,14.27
2018-10-12T22:48:48.616Z,11.90
2018-10-12T22:54:18.168Z,13.40
2018-10-12T22:59:47.754Z,20.40
2018-10-12T23:05:16.969Z,11.97
2018-10-12T23:10:46.296Z,13.25
2018-10-12T23:16:15.524Z,12.27
2018-10-12T23:21:44.817Z,13.67
2018-10-12T23:27:14.063Z,15.80
2018-10-12T23:32:43.350Z,12.17
2018-10-12T23:38:12.649Z,12.80
2018-10-12T23:43:41.861Z,9.67
2018-10-12T23:49:12.116Z,14.10
2018-10-12T23:54:41.339Z,15.13
